sensor_id;sensor_type;location;lat;lon;timestamp;P1;durP1;ratioP1;P2;durP2;ratioP2
31676;SDS011;18385;51.572;6.578;2023-05-02T00:01:39;38.63;;;20.08;;
31676;SDS011;18385;51.572;6.578;2023-05-02T00:04:05;39.20;;;22.17;;
31676;SDS011;18385;51.572;6.578;2023-05-02T00:06:31;43.78;;;22.02;;
31676;SDS011;18385;51.572;6.578;2023-05-02T00:08:57;40.50;;;21.05;;
31676;SDS011;18385;51.572;6.578;2023-05-02T00:11:22;41.03;;;22.70;;
31676;SDS011;18385;51.572;6.578;2023-05-02T00:13:48;35.28;;;19.70;;
31676;SDS011;18385;51.572;6.578;2023-05-02T00:16:14;36.60;;;22.23;;
31676;SDS011;18385;51.572;6.578;2023-05-02T00:18:40;43.67;;;23.70;;
31676;SDS011;18385;51.572;6.578;2023-05-02T00:21:06;36.00;;;19.73;;
31676;SDS011;18385;51.572;6.578;2023-05-02T00:23:32;37.60;;;19.40;;
31676;SDS011;18385;51.572;6.578;2023-05-02T00:25:58;36.35;;;21.13;;
31676;SDS011;18385;51.572;6.578;2023-05-02T00:28:24;35.38;;;19.80;;
31676;SDS011;18385;51.572;6.578;2023-05-02T00:30:51;31.92;;;19.15;;
31676;SDS011;18385;51.572;6.578;2023-05-02T00:33:17;33.88;;;19.77;;
31676;SDS011;18385;51.572;6.578;2023-05-02T00:35:42;37.38;;;21.27;;
31676;SDS011;18385;51.572;6.578;2023-05-02T00:38:08;41.50;;;23.63;;
31676;SDS011;18385;51.572;6.578;2023-05-02T00:40:44;41.75;;;22.75;;
31676;SDS011;18385;51.572;6.578;2023-05-02T00:43:11;35.85;;;21.08;;
31676;SDS011;18385;51.572;6.578;2023-05-02T00:45:37;41.88;;;20.17;;
31676;SDS011;18385;51.572;6.578;2023-05-02T00:48:07;37.65;;;20.63;;
31676;SDS011;18385;51.572;6.578;2023-05-02T00:50:40;42.58;;;22.45;;
31676;SDS011;18385;51.572;6.578;2023-05-02T00:53:07;40.08;;;20.98;;
31676;SDS011;18385;51.572;6.578;2023-05-02T00:55:34;41.65;;;22.83;;
31676;SDS011;18385;51.572;6.578;2023-05-02T00:58:01;40.17;;;20.05;;
31676;SDS011;18385;51.572;6.578;2023-05-02T01:03:19;48.28;;;23.52;;
31676;SDS011;18385;51.572;6.578;2023-05-02T01:06:43;40.90;;;21.17;;
31676;SDS011;18385;51.572;6.578;2023-05-02T01:09:02;42.80;;;22.75;;
31676;SDS011;18385;51.572;6.578;2023-05-02T01:14:11;40.83;;;20.30;;
31676;SDS011;18385;51.572;6.578;2023-05-02T01:16:39;43.05;;;20.92;;
31676;SDS011;18385;51.572;6.578;2023-05-02T01:19:08;41.17;;;20.02;;
31676;SDS011;18385;51.572;6.578;2023-05-02T01:21:43;42.58;;;20.83;;
31676;SDS011;18385;51.572;6.578;2023-05-02T01:24:15;40.47;;;20.40;;
31676;SDS011;18385;51.572;6.578;2023-05-02T01:26:50;41.50;;;21.55;;
31676;SDS011;18385;51.572;6.578;2023-05-02T01:29:26;43.45;;;20.75;;
31676;SDS011;18385;51.572;6.578;2023-05-02T01:31:53;41.75;;;19.92;;
31676;SDS011;18385;51.572;6.578;2023-05-02T01:34:22;38.92;;;18.27;;
31676;SDS011;18385;51.572;6.578;2023-05-02T01:36:49;36.22;;;17.38;;
31676;SDS011;18385;51.572;6.578;2023-05-02T01:39:19;37.85;;;18.83;;
31676;SDS011;18385;51.572;6.578;2023-05-02T01:41:50;29.02;;;13.45;;
31676;SDS011;18385;51.572;6.578;2023-05-02T01:44:19;31.13;;;15.30;;
31676;SDS011;18385;51.572;6.578;2023-05-02T01:46:47;33.87;;;15.97;;
31676;SDS011;18385;51.572;6.578;2023-05-02T01:49:15;32.05;;;15.95;;
31676;SDS011;18385;51.572;6.578;2023-05-02T01:51:44;28.60;;;14.60;;
31676;SDS011;18385;51.572;6.578;2023-05-02T01:54:14;33.45;;;14.93;;
31676;SDS011;18385;51.572;6.578;2023-05-02T01:56:41;27.83;;;14.48;;
31676;SDS011;18385;51.572;6.578;2023-05-02T01:59:09;29.08;;;14.07;;
31676;SDS011;18385;51.572;6.578;2023-05-02T02:01:37;30.38;;;13.60;;
31676;SDS011;18385;51.572;6.578;2023-05-02T02:04:05;24.27;;;12.65;;
31676;SDS011;18385;51.572;6.578;2023-05-02T02:06:33;26.77;;;12.93;;
31676;SDS011;18385;51.572;6.578;2023-05-02T02:08:59;26.50;;;12.93;;
31676;SDS011;18385;51.572;6.578;2023-05-02T02:11:26;24.00;;;12.20;;
31676;SDS011;18385;51.572;6.578;2023-05-02T02:14:05;26.35;;;11.40;;
31676;SDS011;18385;51.572;6.578;2023-05-02T02:16:32;24.13;;;11.68;;
31676;SDS011;18385;51.572;6.578;2023-05-02T02:21:30;19.77;;;9.50;;
31676;SDS011;18385;51.572;6.578;2023-05-02T02:23:58;21.10;;;9.38;;
31676;SDS011;18385;51.572;6.578;2023-05-02T02:26:25;20.00;;;9.43;;
31676;SDS011;18385;51.572;6.578;2023-05-02T02:28:51;19.83;;;9.98;;
31676;SDS011;18385;51.572;6.578;2023-05-02T02:31:18;19.52;;;9.35;;
31676;SDS011;18385;51.572;6.578;2023-05-02T02:33:44;25.42;;;9.55;;
31676;SDS011;18385;51.572;6.578;2023-05-02T02:36:11;17.27;;;7.90;;
31676;SDS011;18385;51.572;6.578;2023-05-02T02:38:44;19.30;;;8.68;;
31676;SDS011;18385;51.572;6.578;2023-05-02T02:41:26;24.10;;;10.60;;
31676;SDS011;18385;51.572;6.578;2023-05-02T02:51:38;20.17;;;9.43;;
31676;SDS011;18385;51.572;6.578;2023-05-02T02:56:51;20.10;;;9.30;;
31676;SDS011;18385;51.572;6.578;2023-05-02T02:59:43;19.13;;;8.98;;
31676;SDS011;18385;51.572;6.578;2023-05-02T03:02:16;18.45;;;9.65;;
31676;SDS011;18385;51.572;6.578;2023-05-02T03:04:43;15.20;;;8.10;;
31676;SDS011;18385;51.572;6.578;2023-05-02T03:07:11;17.05;;;8.32;;
31676;SDS011;18385;51.572;6.578;2023-05-02T03:09:44;19.63;;;8.98;;
31676;SDS011;18385;51.572;6.578;2023-05-02T03:12:16;18.83;;;8.40;;
31676;SDS011;18385;51.572;6.578;2023-05-02T03:14:42;18.90;;;8.98;;
31676;SDS011;18385;51.572;6.578;2023-05-02T03:17:08;16.20;;;7.88;;
31676;SDS011;18385;51.572;6.578;2023-05-02T03:19:35;18.45;;;8.27;;
31676;SDS011;18385;51.572;6.578;2023-05-02T03:22:02;17.55;;;8.15;;
31676;SDS011;18385;51.572;6.578;2023-05-02T03:24:29;17.38;;;8.02;;
31676;SDS011;18385;51.572;6.578;2023-05-02T03:26:56;19.95;;;8.60;;
31676;SDS011;18385;51.572;6.578;2023-05-02T03:29:27;17.67;;;7.70;;
31676;SDS011;18385;51.572;6.578;2023-05-02T03:31:53;20.65;;;9.18;;
31676;SDS011;18385;51.572;6.578;2023-05-02T03:34:20;17.73;;;8.98;;
31676;SDS011;18385;51.572;6.578;2023-05-02T03:36:47;18.75;;;8.73;;
31676;SDS011;18385;51.572;6.578;2023-05-02T03:39:13;16.42;;;7.97;;
31676;SDS011;18385;51.572;6.578;2023-05-02T03:41:40;19.00;;;6.43;;
31676;SDS011;18385;51.572;6.578;2023-05-02T03:44:09;14.95;;;7.22;;
31676;SDS011;18385;51.572;6.578;2023-05-02T03:46:35;18.08;;;9.52;;
31676;SDS011;18385;51.572;6.578;2023-05-02T03:51:31;17.08;;;7.95;;
31676;SDS011;18385;51.572;6.578;2023-05-02T03:53:59;20.60;;;9.65;;
31676;SDS011;18385;51.572;6.578;2023-05-02T03:56:25;17.33;;;9.20;;
31676;SDS011;18385;51.572;6.578;2023-05-02T03:59:06;17.20;;;8.98;;
31676;SDS011;18385;51.572;6.578;2023-05-02T04:01:32;17.20;;;8.88;;
31676;SDS011;18385;51.572;6.578;2023-05-02T04:03:59;20.90;;;8.50;;
31676;SDS011;18385;51.572;6.578;2023-05-02T04:06:28;19.17;;;8.82;;
31676;SDS011;18385;51.572;6.578;2023-05-02T04:09:00;20.27;;;10.43;;
31676;SDS011;18385;51.572;6.578;2023-05-02T04:11:33;20.02;;;8.98;;
31676;SDS011;18385;51.572;6.578;2023-05-02T04:14:00;26.65;;;10.98;;
31676;SDS011;18385;51.572;6.578;2023-05-02T04:16:27;22.80;;;9.82;;
31676;SDS011;18385;51.572;6.578;2023-05-02T04:18:53;28.33;;;12.25;;
31676;SDS011;18385;51.572;6.578;2023-05-02T04:21:18;26.95;;;12.13;;
31676;SDS011;18385;51.572;6.578;2023-05-02T04:23:45;22.75;;;9.40;;
31676;SDS011;18385;51.572;6.578;2023-05-02T04:26:12;16.23;;;7.95;;
31676;SDS011;18385;51.572;6.578;2023-05-02T04:28:46;14.02;;;6.88;;
31676;SDS011;18385;51.572;6.578;2023-05-02T04:31:14;15.70;;;6.30;;
31676;SDS011;18385;51.572;6.578;2023-05-02T04:33:40;15.38;;;6.57;;
31676;SDS011;18385;51.572;6.578;2023-05-02T04:36:06;10.18;;;5.13;;
31676;SDS011;18385;51.572;6.578;2023-05-02T04:38:34;11.27;;;3.88;;
31676;SDS011;18385;51.572;6.578;2023-05-02T04:41:00;8.57;;;3.63;;
31676;SDS011;18385;51.572;6.578;2023-05-02T04:43:36;7.38;;;3.92;;
31676;SDS011;18385;51.572;6.578;2023-05-02T04:46:02;6.85;;;3.00;;
31676;SDS011;18385;51.572;6.578;2023-05-02T04:48:34;5.72;;;2.70;;
31676;SDS011;18385;51.572;6.578;2023-05-02T04:51:00;8.30;;;3.65;;
31676;SDS011;18385;51.572;6.578;2023-05-02T04:53:28;7.18;;;3.35;;
31676;SDS011;18385;51.572;6.578;2023-05-02T04:55:53;6.97;;;3.30;;
31676;SDS011;18385;51.572;6.578;2023-05-02T04:58:19;10.48;;;3.42;;
31676;SDS011;18385;51.572;6.578;2023-05-02T05:00:50;12.32;;;3.75;;
31676;SDS011;18385;51.572;6.578;2023-05-02T05:03:15;8.75;;;3.63;;
31676;SDS011;18385;51.572;6.578;2023-05-02T05:05:41;10.43;;;3.47;;
31676;SDS011;18385;51.572;6.578;2023-05-02T05:08:12;13.75;;;3.60;;
31676;SDS011;18385;51.572;6.578;2023-05-02T05:10:37;13.27;;;3.78;;
31676;SDS011;18385;51.572;6.578;2023-05-02T05:13:05;17.08;;;4.40;;
31676;SDS011;18385;51.572;6.578;2023-05-02T05:15:32;10.00;;;3.75;;
31676;SDS011;18385;51.572;6.578;2023-05-02T05:17:59;9.50;;;3.83;;
31676;SDS011;18385;51.572;6.578;2023-05-02T05:20:26;15.40;;;4.40;;
31676;SDS011;18385;51.572;6.578;2023-05-02T05:22:55;10.90;;;3.42;;
31676;SDS011;18385;51.572;6.578;2023-05-02T05:25:22;9.77;;;3.67;;
31676;SDS011;18385;51.572;6.578;2023-05-02T05:27:51;13.77;;;3.67;;
31676;SDS011;18385;51.572;6.578;2023-05-02T05:30:19;13.32;;;3.35;;
31676;SDS011;18385;51.572;6.578;2023-05-02T05:32:44;8.90;;;3.92;;
31676;SDS011;18385;51.572;6.578;2023-05-02T05:35:10;5.95;;;2.50;;
31676;SDS011;18385;51.572;6.578;2023-05-02T05:37:36;9.88;;;3.17;;
31676;SDS011;18385;51.572;6.578;2023-05-02T05:40:06;10.10;;;3.13;;
31676;SDS011;18385;51.572;6.578;2023-05-02T05:42:33;4.50;;;2.55;;
31676;SDS011;18385;51.572;6.578;2023-05-02T05:47:28;10.88;;;2.90;;
31676;SDS011;18385;51.572;6.578;2023-05-02T05:49:54;14.20;;;4.15;;
31676;SDS011;18385;51.572;6.578;2023-05-02T05:52:23;7.53;;;3.20;;
31676;SDS011;18385;51.572;6.578;2023-05-02T05:54:54;8.88;;;2.67;;
31676;SDS011;18385;51.572;6.578;2023-05-02T05:57:26;11.00;;;3.13;;
31676;SDS011;18385;51.572;6.578;2023-05-02T05:59:53;6.53;;;2.60;;
31676;SDS011;18385;51.572;6.578;2023-05-02T06:02:19;10.70;;;2.50;;
31676;SDS011;18385;51.572;6.578;2023-05-02T06:04:45;11.05;;;3.33;;
31676;SDS011;18385;51.572;6.578;2023-05-02T06:07:12;6.53;;;2.22;;
31676;SDS011;18385;51.572;6.578;2023-05-02T06:09:37;10.10;;;2.40;;
31676;SDS011;18385;51.572;6.578;2023-05-02T06:12:03;6.75;;;2.30;;
31676;SDS011;18385;51.572;6.578;2023-05-02T06:14:31;4.53;;;2.40;;
31676;SDS011;18385;51.572;6.578;2023-05-02T06:17:00;6.53;;;2.05;;
31676;SDS011;18385;51.572;6.578;2023-05-02T06:21:52;5.50;;;1.67;;
31676;SDS011;18385;51.572;6.578;2023-05-02T06:24:18;6.28;;;1.42;;
31676;SDS011;18385;51.572;6.578;2023-05-02T06:26:43;6.50;;;1.38;;
31676;SDS011;18385;51.572;6.578;2023-05-02T06:29:10;7.78;;;1.40;;
31676;SDS011;18385;51.572;6.578;2023-05-02T06:31:35;8.32;;;1.73;;
31676;SDS011;18385;51.572;6.578;2023-05-02T06:34:01;9.05;;;1.58;;
31676;SDS011;18385;51.572;6.578;2023-05-02T06:36:27;5.10;;;1.20;;
31676;SDS011;18385;51.572;6.578;2023-05-02T06:38:52;9.57;;;2.00;;
31676;SDS011;18385;51.572;6.578;2023-05-02T06:41:18;4.00;;;1.33;;
31676;SDS011;18385;51.572;6.578;2023-05-02T06:43:44;7.97;;;1.67;;
31676;SDS011;18385;51.572;6.578;2023-05-02T06:46:10;7.25;;;1.58;;
31676;SDS011;18385;51.572;6.578;2023-05-02T06:48:36;3.55;;;1.50;;
31676;SDS011;18385;51.572;6.578;2023-05-02T06:51:01;5.75;;;1.70;;
31676;SDS011;18385;51.572;6.578;2023-05-02T06:53:28;5.80;;;1.40;;
31676;SDS011;18385;51.572;6.578;2023-05-02T06:55:55;7.90;;;1.88;;
31676;SDS011;18385;51.572;6.578;2023-05-02T06:58:20;8.43;;;1.73;;
31676;SDS011;18385;51.572;6.578;2023-05-02T07:00:46;7.85;;;2.00;;
31676;SDS011;18385;51.572;6.578;2023-05-02T07:03:12;9.05;;;2.15;;
31676;SDS011;18385;51.572;6.578;2023-05-02T07:05:38;9.90;;;2.20;;
31676;SDS011;18385;51.572;6.578;2023-05-02T07:08:04;8.77;;;2.28;;
31676;SDS011;18385;51.572;6.578;2023-05-02T07:10:30;7.57;;;1.90;;
31676;SDS011;18385;51.572;6.578;2023-05-02T07:12:56;9.35;;;2.10;;
31676;SDS011;18385;51.572;6.578;2023-05-02T07:15:21;8.13;;;2.20;;
31676;SDS011;18385;51.572;6.578;2023-05-02T07:17:47;10.88;;;2.80;;
31676;SDS011;18385;51.572;6.578;2023-05-02T07:20:13;11.23;;;2.70;;
31676;SDS011;18385;51.572;6.578;2023-05-02T07:22:40;9.55;;;2.05;;
31676;SDS011;18385;51.572;6.578;2023-05-02T07:25:06;10.82;;;2.10;;
31676;SDS011;18385;51.572;6.578;2023-05-02T07:27:32;12.23;;;1.90;;
31676;SDS011;18385;51.572;6.578;2023-05-02T07:29:58;8.63;;;2.00;;
31676;SDS011;18385;51.572;6.578;2023-05-02T07:32:25;7.03;;;1.75;;
31676;SDS011;18385;51.572;6.578;2023-05-02T07:34:51;11.38;;;1.73;;
31676;SDS011;18385;51.572;6.578;2023-05-02T07:37:21;10.15;;;2.13;;
31676;SDS011;18385;51.572;6.578;2023-05-02T07:39:47;11.00;;;1.80;;
31676;SDS011;18385;51.572;6.578;2023-05-02T07:42:12;6.80;;;1.77;;
31676;SDS011;18385;51.572;6.578;2023-05-02T07:44:38;9.52;;;1.95;;
31676;SDS011;18385;51.572;6.578;2023-05-02T07:47:04;10.02;;;1.75;;
31676;SDS011;18385;51.572;6.578;2023-05-02T07:49:30;8.05;;;2.08;;
31676;SDS011;18385;51.572;6.578;2023-05-02T07:51:56;8.88;;;1.80;;
31676;SDS011;18385;51.572;6.578;2023-05-02T07:54:22;8.18;;;1.98;;
31676;SDS011;18385;51.572;6.578;2023-05-02T07:56:50;13.63;;;3.25;;
31676;SDS011;18385;51.572;6.578;2023-05-02T07:59:15;8.48;;;2.45;;
31676;SDS011;18385;51.572;6.578;2023-05-02T08:01:41;10.60;;;3.10;;
31676;SDS011;18385;51.572;6.578;2023-05-02T08:04:07;10.13;;;2.10;;
31676;SDS011;18385;51.572;6.578;2023-05-02T08:06:35;10.27;;;2.58;;
31676;SDS011;18385;51.572;6.578;2023-05-02T08:09:01;11.10;;;2.35;;
31676;SDS011;18385;51.572;6.578;2023-05-02T08:11:27;10.55;;;2.30;;
31676;SDS011;18385;51.572;6.578;2023-05-02T08:13:53;11.77;;;2.85;;
31676;SDS011;18385;51.572;6.578;2023-05-02T08:16:20;7.75;;;2.03;;
31676;SDS011;18385;51.572;6.578;2023-05-02T08:18:46;8.27;;;2.22;;
31676;SDS011;18385;51.572;6.578;2023-05-02T08:21:12;6.60;;;1.60;;
31676;SDS011;18385;51.572;6.578;2023-05-02T08:23:39;5.40;;;1.95;;
31676;SDS011;18385;51.572;6.578;2023-05-02T08:26:06;6.75;;;1.90;;
31676;SDS011;18385;51.572;6.578;2023-05-02T08:28:34;11.30;;;2.00;;
31676;SDS011;18385;51.572;6.578;2023-05-02T08:30:59;6.50;;;1.70;;
31676;SDS011;18385;51.572;6.578;2023-05-02T08:33:25;7.35;;;1.83;;
31676;SDS011;18385;51.572;6.578;2023-05-02T08:35:51;9.10;;;1.77;;
31676;SDS011;18385;51.572;6.578;2023-05-02T08:38:17;9.52;;;1.67;;
31676;SDS011;18385;51.572;6.578;2023-05-02T08:40:42;7.68;;;1.95;;
31676;SDS011;18385;51.572;6.578;2023-05-02T08:43:09;7.00;;;1.58;;
31676;SDS011;18385;51.572;6.578;2023-05-02T08:45:38;8.20;;;1.92;;
31676;SDS011;18385;51.572;6.578;2023-05-02T08:48:07;10.05;;;2.00;;
31676;SDS011;18385;51.572;6.578;2023-05-02T08:50:38;7.07;;;2.00;;
31676;SDS011;18385;51.572;6.578;2023-05-02T08:53:06;15.23;;;2.97;;
31676;SDS011;18385;51.572;6.578;2023-05-02T08:55:34;7.60;;;2.10;;
31676;SDS011;18385;51.572;6.578;2023-05-02T08:58:04;7.97;;;1.83;;
31676;SDS011;18385;51.572;6.578;2023-05-02T09:00:30;7.45;;;1.60;;
31676;SDS011;18385;51.572;6.578;2023-05-02T09:03:10;8.40;;;1.90;;
31676;SDS011;18385;51.572;6.578;2023-05-02T09:05:44;13.23;;;2.72;;
31676;SDS011;18385;51.572;6.578;2023-05-02T09:08:20;12.07;;;2.53;;
31676;SDS011;18385;51.572;6.578;2023-05-02T09:10:47;10.48;;;2.10;;
31676;SDS011;18385;51.572;6.578;2023-05-02T09:16:05;12.02;;;2.25;;
31676;SDS011;18385;51.572;6.578;2023-05-02T09:21:07;6.55;;;1.92;;
31676;SDS011;18385;51.572;6.578;2023-05-02T09:23:47;5.93;;;2.42;;
31676;SDS011;18385;51.572;6.578;2023-05-02T09:26:14;9.00;;;2.65;;
31676;SDS011;18385;51.572;6.578;2023-05-02T09:28:48;11.45;;;2.47;;
31676;SDS011;18385;51.572;6.578;2023-05-02T09:31:19;11.43;;;2.20;;
31676;SDS011;18385;51.572;6.578;2023-05-02T09:33:55;11.77;;;2.67;;
31676;SDS011;18385;51.572;6.578;2023-05-02T09:36:21;9.43;;;2.35;;
31676;SDS011;18385;51.572;6.578;2023-05-02T09:38:47;8.25;;;2.05;;
31676;SDS011;18385;51.572;6.578;2023-05-02T09:41:14;6.75;;;1.80;;
31676;SDS011;18385;51.572;6.578;2023-05-02T09:43:42;6.28;;;1.70;;
31676;SDS011;18385;51.572;6.578;2023-05-02T09:46:10;8.25;;;1.90;;
31676;SDS011;18385;51.572;6.578;2023-05-02T09:48:52;9.60;;;1.70;;
31676;SDS011;18385;51.572;6.578;2023-05-02T09:51:25;11.90;;;2.05;;
31676;SDS011;18385;51.572;6.578;2023-05-02T09:53:51;15.38;;;2.95;;
31676;SDS011;18385;51.572;6.578;2023-05-02T09:56:17;6.18;;;1.80;;
31676;SDS011;18385;51.572;6.578;2023-05-02T09:58:43;5.90;;;1.60;;
31676;SDS011;18385;51.572;6.578;2023-05-02T10:01:16;7.13;;;1.60;;
31676;SDS011;18385;51.572;6.578;2023-05-02T10:03:45;7.00;;;1.90;;
31676;SDS011;18385;51.572;6.578;2023-05-02T10:06:11;11.52;;;2.70;;
31676;SDS011;18385;51.572;6.578;2023-05-02T10:08:38;8.40;;;1.60;;
31676;SDS011;18385;51.572;6.578;2023-05-02T10:11:08;4.93;;;1.10;;
31676;SDS011;18385;51.572;6.578;2023-05-02T10:13:36;7.03;;;1.20;;
31676;SDS011;18385;51.572;6.578;2023-05-02T10:16:05;14.48;;;1.60;;
31676;SDS011;18385;51.572;6.578;2023-05-02T10:18:47;6.72;;;1.30;;
31676;SDS011;18385;51.572;6.578;2023-05-02T10:21:19;5.95;;;1.95;;
31676;SDS011;18385;51.572;6.578;2023-05-02T10:23:51;9.57;;;1.55;;
31676;SDS011;18385;51.572;6.578;2023-05-02T10:26:17;4.80;;;1.13;;
31676;SDS011;18385;51.572;6.578;2023-05-02T10:28:46;6.70;;;1.50;;
31676;SDS011;18385;51.572;6.578;2023-05-02T10:31:12;7.63;;;1.58;;
31676;SDS011;18385;51.572;6.578;2023-05-02T10:33:40;4.60;;;0.93;;
31676;SDS011;18385;51.572;6.578;2023-05-02T10:36:06;10.38;;;1.30;;
31676;SDS011;18385;51.572;6.578;2023-05-02T10:38:34;4.72;;;1.00;;
31676;SDS011;18385;51.572;6.578;2023-05-02T10:41:06;4.57;;;0.98;;
31676;SDS011;18385;51.572;6.578;2023-05-02T10:43:36;3.47;;;1.15;;
31676;SDS011;18385;51.572;6.578;2023-05-02T10:46:03;5.03;;;1.30;;
31676;SDS011;18385;51.572;6.578;2023-05-02T10:49:10;7.30;;;1.00;;
31676;SDS011;18385;51.572;6.578;2023-05-02T10:51:41;4.18;;;1.23;;
31676;SDS011;18385;51.572;6.578;2023-05-02T10:59:26;5.18;;;0.90;;
31676;SDS011;18385;51.572;6.578;2023-05-02T11:01:52;5.88;;;1.00;;
31676;SDS011;18385;51.572;6.578;2023-05-02T11:04:18;4.45;;;1.10;;
31676;SDS011;18385;51.572;6.578;2023-05-02T11:11:54;7.97;;;1.95;;
31676;SDS011;18385;51.572;6.578;2023-05-02T11:22:35;3.25;;;1.00;;
31676;SDS011;18385;51.572;6.578;2023-05-02T11:24:57;3.10;;;0.90;;
31676;SDS011;18385;51.572;6.578;2023-05-02T11:29:55;8.70;;;1.02;;
31676;SDS011;18385;51.572;6.578;2023-05-02T11:33:10;7.18;;;1.27;;
31676;SDS011;18385;51.572;6.578;2023-05-02T11:38:03;6.15;;;2.15;;
31676;SDS011;18385;51.572;6.578;2023-05-02T11:40:31;6.18;;;1.38;;
31676;SDS011;18385;51.572;6.578;2023-05-02T11:42:57;7.28;;;1.77;;
31676;SDS011;18385;51.572;6.578;2023-05-02T11:45:36;5.95;;;1.75;;
31676;SDS011;18385;51.572;6.578;2023-05-02T11:48:06;4.95;;;1.40;;
31676;SDS011;18385;51.572;6.578;2023-05-02T11:50:34;4.95;;;1.60;;
31676;SDS011;18385;51.572;6.578;2023-05-02T11:53:13;6.85;;;1.80;;
31676;SDS011;18385;51.572;6.578;2023-05-02T11:55:47;5.82;;;1.50;;
31676;SDS011;18385;51.572;6.578;2023-05-02T11:58:24;5.47;;;1.50;;
31676;SDS011;18385;51.572;6.578;2023-05-02T12:00:53;9.05;;;1.60;;
31676;SDS011;18385;51.572;6.578;2023-05-02T12:03:20;3.40;;;1.33;;
31676;SDS011;18385;51.572;6.578;2023-05-02T12:05:53;3.58;;;1.27;;
31676;SDS011;18385;51.572;6.578;2023-05-02T12:08:20;8.63;;;1.85;;
31676;SDS011;18385;51.572;6.578;2023-05-02T12:10:51;5.40;;;1.80;;
31676;SDS011;18385;51.572;6.578;2023-05-02T12:13:18;4.25;;;1.75;;
31676;SDS011;18385;51.572;6.578;2023-05-02T12:15:45;4.25;;;1.60;;
31676;SDS011;18385;51.572;6.578;2023-05-02T12:18:11;6.88;;;1.85;;
31676;SDS011;18385;51.572;6.578;2023-05-02T12:20:37;4.30;;;2.13;;
31676;SDS011;18385;51.572;6.578;2023-05-02T12:23:04;7.38;;;2.40;;
31676;SDS011;18385;51.572;6.578;2023-05-02T12:25:38;6.47;;;1.70;;
31676;SDS011;18385;51.572;6.578;2023-05-02T12:28:05;6.55;;;1.67;;
31676;SDS011;18385;51.572;6.578;2023-05-02T12:30:31;6.97;;;2.25;;
31676;SDS011;18385;51.572;6.578;2023-05-02T12:32:57;6.63;;;1.90;;
31676;SDS011;18385;51.572;6.578;2023-05-02T12:35:28;5.07;;;1.83;;
31676;SDS011;18385;51.572;6.578;2023-05-02T12:38:06;4.57;;;2.15;;
31676;SDS011;18385;51.572;6.578;2023-05-02T12:40:36;5.80;;;2.05;;
31676;SDS011;18385;51.572;6.578;2023-05-02T12:43:02;6.00;;;1.90;;
31676;SDS011;18385;51.572;6.578;2023-05-02T12:45:30;10.17;;;2.03;;
31676;SDS011;18385;51.572;6.578;2023-05-02T12:48:00;6.40;;;2.30;;
31676;SDS011;18385;51.572;6.578;2023-05-02T12:50:39;7.70;;;2.50;;
31676;SDS011;18385;51.572;6.578;2023-05-02T12:53:04;6.88;;;2.15;;
31676;SDS011;18385;51.572;6.578;2023-05-02T12:55:31;7.10;;;2.45;;
31676;SDS011;18385;51.572;6.578;2023-05-02T13:00:26;6.07;;;2.10;;
31676;SDS011;18385;51.572;6.578;2023-05-02T13:02:52;8.80;;;2.10;;
31676;SDS011;18385;51.572;6.578;2023-05-02T13:05:18;9.63;;;1.90;;
31676;SDS011;18385;51.572;6.578;2023-05-02T13:07:44;4.65;;;1.67;;
31676;SDS011;18385;51.572;6.578;2023-05-02T13:10:11;5.40;;;1.75;;
31676;SDS011;18385;51.572;6.578;2023-05-02T13:12:37;6.55;;;1.58;;
31676;SDS011;18385;51.572;6.578;2023-05-02T13:15:05;6.90;;;2.58;;
31676;SDS011;18385;51.572;6.578;2023-05-02T13:17:32;6.88;;;2.35;;
31676;SDS011;18385;51.572;6.578;2023-05-02T13:19:58;5.07;;;1.85;;
31676;SDS011;18385;51.572;6.578;2023-05-02T13:22:24;7.82;;;2.20;;
31676;SDS011;18385;51.572;6.578;2023-05-02T13:24:51;4.70;;;2.15;;
31676;SDS011;18385;51.572;6.578;2023-05-02T13:27:17;6.38;;;1.67;;
31676;SDS011;18385;51.572;6.578;2023-05-02T13:29:47;9.48;;;3.00;;
31676;SDS011;18385;51.572;6.578;2023-05-02T13:32:13;11.90;;;2.55;;
31676;SDS011;18385;51.572;6.578;2023-05-02T13:34:39;5.65;;;2.00;;
31676;SDS011;18385;51.572;6.578;2023-05-02T13:37:04;10.23;;;1.95;;
31676;SDS011;18385;51.572;6.578;2023-05-02T13:39:30;4.63;;;1.95;;
31676;SDS011;18385;51.572;6.578;2023-05-02T13:41:55;10.18;;;2.17;;
31676;SDS011;18385;51.572;6.578;2023-05-02T13:44:21;7.13;;;2.08;;
31676;SDS011;18385;51.572;6.578;2023-05-02T13:46:47;7.30;;;2.20;;
31676;SDS011;18385;51.572;6.578;2023-05-02T13:49:12;7.43;;;2.30;;
31676;SDS011;18385;51.572;6.578;2023-05-02T13:51:38;5.72;;;1.85;;
31676;SDS011;18385;51.572;6.578;2023-05-02T13:54:04;8.43;;;2.22;;
31676;SDS011;18385;51.572;6.578;2023-05-02T13:56:30;10.27;;;2.50;;
31676;SDS011;18385;51.572;6.578;2023-05-02T13:58:56;4.47;;;2.03;;
31676;SDS011;18385;51.572;6.578;2023-05-02T14:01:22;8.15;;;2.20;;
31676;SDS011;18385;51.572;6.578;2023-05-02T14:03:50;9.68;;;2.97;;
31676;SDS011;18385;51.572;6.578;2023-05-02T14:06:16;7.78;;;2.30;;
31676;SDS011;18385;51.572;6.578;2023-05-02T14:08:42;8.05;;;2.78;;
31676;SDS011;18385;51.572;6.578;2023-05-02T14:11:08;6.40;;;2.40;;
31676;SDS011;18385;51.572;6.578;2023-05-02T14:13:35;7.05;;;2.20;;
31676;SDS011;18385;51.572;6.578;2023-05-02T14:16:01;8.02;;;2.33;;
31676;SDS011;18385;51.572;6.578;2023-05-02T14:18:27;6.65;;;2.55;;
31676;SDS011;18385;51.572;6.578;2023-05-02T14:20:53;5.40;;;2.42;;
31676;SDS011;18385;51.572;6.578;2023-05-02T14:23:21;6.35;;;2.38;;
31676;SDS011;18385;51.572;6.578;2023-05-02T14:25:47;8.45;;;2.63;;
31676;SDS011;18385;51.572;6.578;2023-05-02T14:28:13;7.70;;;2.58;;
31676;SDS011;18385;51.572;6.578;2023-05-02T14:30:38;7.10;;;2.05;;
31676;SDS011;18385;51.572;6.578;2023-05-02T14:33:04;6.40;;;2.22;;
31676;SDS011;18385;51.572;6.578;2023-05-02T14:35:30;5.10;;;1.92;;
31676;SDS011;18385;51.572;6.578;2023-05-02T14:37:56;6.68;;;2.97;;
31676;SDS011;18385;51.572;6.578;2023-05-02T14:40:21;7.40;;;2.20;;
31676;SDS011;18385;51.572;6.578;2023-05-02T14:42:47;5.78;;;2.05;;
31676;SDS011;18385;51.572;6.578;2023-05-02T14:45:12;8.77;;;2.40;;
31676;SDS011;18385;51.572;6.578;2023-05-02T14:47:38;8.18;;;2.60;;
31676;SDS011;18385;51.572;6.578;2023-05-02T14:50:04;7.32;;;2.47;;
31676;SDS011;18385;51.572;6.578;2023-05-02T14:52:30;6.07;;;2.50;;
31676;SDS011;18385;51.572;6.578;2023-05-02T14:54:59;6.70;;;2.10;;
31676;SDS011;18385;51.572;6.578;2023-05-02T14:57:26;8.70;;;2.72;;
31676;SDS011;18385;51.572;6.578;2023-05-02T14:59:52;7.00;;;2.83;;
31676;SDS011;18385;51.572;6.578;2023-05-02T15:02:18;8.23;;;2.17;;
31676;SDS011;18385;51.572;6.578;2023-05-02T15:04:43;8.95;;;2.25;;
31676;SDS011;18385;51.572;6.578;2023-05-02T15:07:09;6.40;;;2.40;;
31676;SDS011;18385;51.572;6.578;2023-05-02T15:09:35;8.73;;;2.80;;
31676;SDS011;18385;51.572;6.578;2023-05-02T15:12:01;9.25;;;3.00;;
31676;SDS011;18385;51.572;6.578;2023-05-02T15:14:27;9.07;;;3.30;;
31676;SDS011;18385;51.572;6.578;2023-05-02T15:16:53;12.27;;;2.60;;
31676;SDS011;18385;51.572;6.578;2023-05-02T15:19:19;5.63;;;2.33;;
31676;SDS011;18385;51.572;6.578;2023-05-02T15:21:47;10.95;;;2.78;;
31676;SDS011;18385;51.572;6.578;2023-05-02T15:24:14;7.88;;;2.95;;
31676;SDS011;18385;51.572;6.578;2023-05-02T15:26:40;8.32;;;2.92;;
31676;SDS011;18385;51.572;6.578;2023-05-02T15:29:06;6.22;;;2.65;;
31676;SDS011;18385;51.572;6.578;2023-05-02T15:31:32;8.25;;;2.67;;
31676;SDS011;18385;51.572;6.578;2023-05-02T15:33:58;7.63;;;2.40;;
31676;SDS011;18385;51.572;6.578;2023-05-02T15:36:27;6.95;;;2.53;;
31676;SDS011;18385;51.572;6.578;2023-05-02T15:38:54;5.28;;;2.58;;
31676;SDS011;18385;51.572;6.578;2023-05-02T15:41:20;6.55;;;2.78;;
31676;SDS011;18385;51.572;6.578;2023-05-02T15:43:46;9.40;;;3.03;;